createdAt,value
2018-04-10T00:00:39.865Z,14.26
2018-04-10T00:03:09.385Z,14.32
2018-04-10T00:05:38.891Z,14.10
2018-04-10T00:08:08.408Z,14.26
2018-04-10T00:10:37.923Z,14.20
2018-04-10T00:13:07.414Z,14.02
2018-04-10T00:15:36.896Z,13.94
2018-04-10T00:18:06.099Z,13.85
2018-04-10T00:20:35.598Z,13.74
2018-04-10T00:23:04.849Z,13.71
2018-04-10T00:25:34.339Z,13.71
2018-04-10T00:28:03.835Z,13.68
2018-04-10T00:30:33.732Z,13.70
2018-04-10T00:33:03.235Z,13.78
2018-04-10T00:35:32.499Z,13.69
2018-04-10T00:38:02.431Z,13.78
2018-04-10T00:40:32.510Z,13.75
2018-04-10T00:43:02.030Z,13.78
2018-04-10T00:45:31.524Z,13.76
2018-04-10T00:48:01.012Z,13.76
2018-04-10T00:50:30.534Z,13.84
2018-04-10T00:56:18.972Z,13.85
2018-04-10T00:58:48.464Z,13.80
2018-04-10T01:01:17.971Z,13.86
2018-04-10T01:03:47.472Z,13.79
2018-04-10T01:06:16.987Z,13.72
2018-04-10T01:08:46.495Z,13.74
2018-04-10T01:11:16.216Z,13.83
2018-04-10T01:13:45.792Z,13.70
2018-04-10T01:16:15.316Z,13.68
2018-04-10T01:18:44.592Z,13.68
2018-04-10T01:21:13.870Z,13.68
2018-04-10T01:23:43.403Z,13.61
2018-04-10T01:26:12.908Z,13.59
2018-04-10T01:28:42.405Z,13.60
2018-04-10T01:31:12.300Z,13.56
2018-04-10T01:33:41.810Z,13.57
2018-04-10T01:36:11.314Z,13.53
2018-04-10T01:38:40.822Z,13.48
2018-04-10T01:41:10.713Z,13.44
2018-04-10T01:43:40.231Z,13.27
2018-04-10T01:46:09.858Z,13.33
2018-04-10T01:48:39.737Z,13.23
2018-04-10T01:51:09.252Z,13.20
2018-04-10T01:53:38.739Z,13.18
2018-04-10T01:56:08.457Z,13.14
2018-04-10T01:58:37.644Z,13.09
2018-04-10T02:01:07.137Z,13.03
2018-04-10T02:03:36.627Z,13.08
2018-04-10T02:06:06.118Z,13.10
2018-04-10T02:08:35.615Z,13.02
2018-04-10T02:11:05.747Z,12.98
2018-04-10T02:13:35.241Z,12.84
2018-04-10T02:16:05.158Z,12.80
2018-04-10T02:18:35.052Z,12.81
2018-04-10T02:21:04.556Z,12.67
2018-04-10T02:23:34.058Z,12.58
2018-04-10T02:26:03.567Z,12.64
2018-04-10T02:28:33.052Z,12.72
2018-04-10T02:31:02.578Z,12.64
2018-04-10T02:33:32.089Z,12.56
2018-04-10T02:36:01.580Z,12.48
2018-04-10T02:38:31.096Z,12.47
2018-04-10T02:41:00.600Z,12.47
2018-04-10T02:43:30.106Z,12.42
2018-04-10T02:45:59.790Z,12.35
2018-04-10T02:48:29.300Z,12.24
2018-04-10T02:50:58.578Z,12.26
2018-04-10T02:53:28.102Z,12.33
2018-04-10T02:55:57.600Z,12.36
2018-04-10T02:58:27.098Z,12.12
2018-04-10T03:00:56.592Z,11.75
2018-04-10T03:03:26.078Z,11.35
2018-04-10T03:05:55.612Z,11.21
2018-04-10T03:08:25.112Z,11.08
2018-04-10T03:10:54.598Z,10.93
2018-04-10T03:13:24.127Z,11.11
2018-04-10T03:15:53.630Z,11.12
2018-04-10T03:18:23.136Z,11.13
2018-04-10T03:20:52.634Z,11.08
2018-04-10T03:23:22.134Z,10.84
2018-04-10T03:25:51.630Z,10.58
2018-04-10T03:28:21.118Z,10.40
2018-04-10T03:30:50.993Z,10.32
2018-04-10T03:33:20.497Z,10.16
2018-04-10T03:35:50.114Z,10.12
2018-04-10T03:38:19.802Z,10.15
2018-04-10T03:40:49.329Z,10.28
2018-04-10T03:43:18.840Z,10.35
2018-04-10T03:45:48.340Z,10.37
2018-04-10T03:48:17.870Z,10.40
2018-04-10T03:50:47.368Z,10.53
2018-04-10T03:53:16.859Z,10.72
2018-04-10T03:55:46.440Z,10.92
2018-04-10T03:58:16.128Z,10.99
2018-04-10T04:00:45.620Z,10.99
2018-04-10T04:03:15.536Z,10.99
2018-04-10T04:05:45.428Z,11.10
2018-04-10T04:08:14.921Z,11.10
2018-04-10T04:10:44.448Z,11.04
2018-04-10T04:13:14.341Z,11.05
2018-04-10T04:15:43.863Z,11.03
2018-04-10T04:18:30.108Z,11.06
2018-04-10T04:21:16.383Z,11.03
2018-04-10T04:23:46.308Z,11.16
2018-04-10T04:26:15.791Z,11.21
2018-04-10T04:28:45.690Z,11.14
2018-04-10T04:31:15.379Z,11.14
2018-04-10T04:33:44.882Z,11.10
2018-04-10T04:36:14.408Z,11.15
2018-04-10T04:38:43.922Z,11.13
2018-04-10T04:41:13.210Z,10.89
2018-04-10T04:43:42.722Z,11.04
2018-04-10T04:46:12.238Z,11.03
2018-04-10T04:48:41.735Z,11.01
2018-04-10T04:51:11.230Z,10.97
2018-04-10T04:53:40.496Z,10.93
2018-04-10T04:56:10.010Z,11.05
2018-04-10T04:58:39.282Z,11.07
2018-04-10T05:01:08.788Z,11.07
2018-04-10T05:03:38.277Z,11.24
2018-04-10T05:06:08.166Z,11.12
2018-04-10T05:08:37.668Z,11.10
2018-04-10T05:11:07.188Z,11.13
2018-04-10T05:13:36.686Z,10.94
2018-04-10T05:16:06.182Z,10.98
2018-04-10T05:18:35.364Z,11.01
2018-04-10T05:21:04.855Z,10.92
2018-04-10T05:23:34.363Z,11.04
2018-04-10T05:26:03.874Z,11.03
2018-04-10T05:28:33.383Z,10.95
2018-04-10T05:31:02.883Z,10.91
2018-04-10T05:33:32.394Z,10.75
2018-04-10T05:36:02.284Z,10.77
2018-04-10T05:38:31.786Z,10.69
2018-04-10T05:41:01.295Z,10.51
2018-04-10T05:43:30.822Z,10.61
2018-04-10T05:46:00.322Z,10.85
2018-04-10T05:48:29.824Z,11.09
2018-04-10T05:50:59.131Z,11.25
2018-04-10T05:53:28.633Z,11.13
2018-04-10T05:55:58.131Z,10.59
2018-04-10T05:58:27.661Z,10.49
2018-04-10T06:00:57.158Z,10.57
2018-04-10T06:03:26.654Z,10.94
2018-04-10T06:05:55.978Z,11.38
2018-04-10T06:08:25.250Z,11.82
2018-04-10T06:10:54.822Z,12.37
2018-04-10T06:13:24.935Z,12.95
2018-04-10T06:15:54.833Z,13.53
2018-04-10T06:18:24.368Z,14.05
2018-04-10T06:20:54.029Z,14.56
2018-04-10T06:23:23.534Z,15.33
2018-04-10T06:25:53.047Z,16.13
2018-04-10T06:28:22.543Z,16.62
2018-04-10T06:30:52.042Z,16.68
2018-04-10T06:33:21.553Z,16.60
2018-04-10T06:35:51.091Z,16.92
2018-04-10T06:38:20.626Z,16.70
2018-04-10T06:40:50.125Z,16.94
2018-04-10T06:43:20.032Z,17.19
2018-04-10T06:45:49.699Z,17.50
2018-04-10T06:48:19.192Z,15.96
2018-04-10T06:50:48.714Z,14.90
2018-04-10T06:53:18.215Z,14.61
2018-04-10T06:55:47.719Z,14.33
2018-04-10T06:58:17.243Z,13.44
2018-04-10T07:00:46.740Z,12.86
2018-04-10T07:03:15.989Z,12.86
2018-04-10T07:05:45.513Z,13.01
2018-04-10T07:08:15.026Z,13.05
2018-04-10T07:10:44.547Z,13.28
2018-04-10T07:13:14.106Z,14.02
2018-04-10T07:15:43.764Z,14.74
2018-04-10T07:18:13.261Z,15.41
2018-04-10T07:20:42.790Z,15.90
2018-04-10T07:23:12.292Z,16.11
2018-04-10T07:25:41.776Z,17.31
2018-04-10T07:28:11.307Z,16.91
2018-04-10T07:30:40.796Z,15.65
2018-04-10T07:33:10.299Z,17.11
2018-04-10T07:35:39.818Z,17.47
2018-04-10T07:38:09.315Z,17.75
2018-04-10T07:40:38.815Z,16.94
2018-04-10T07:43:08.305Z,16.21
2018-04-10T07:45:37.815Z,16.31
2018-04-10T07:48:07.329Z,17.23
2018-04-10T07:50:36.891Z,18.02
2018-04-10T07:53:06.782Z,17.99
2018-04-10T07:55:36.064Z,18.29
2018-04-10T07:58:05.565Z,18.75
2018-04-10T08:00:35.066Z,19.26
2018-04-10T08:03:04.577Z,19.49
2018-04-10T08:05:34.067Z,19.37
2018-04-10T08:08:03.573Z,18.39
2018-04-10T08:10:33.099Z,18.22
2018-04-10T08:13:02.611Z,17.88
2018-04-10T08:15:32.119Z,17.98
2018-04-10T08:18:01.823Z,18.09
2018-04-10T08:20:31.313Z,17.73
2018-04-10T08:23:00.815Z,17.31
2018-04-10T08:25:30.331Z,16.74
2018-04-10T08:27:59.836Z,16.94
2018-04-10T08:30:29.339Z,16.32
2018-04-10T08:32:58.874Z,15.83
2018-04-10T08:35:28.402Z,15.92
2018-04-10T08:37:58.316Z,15.83
2018-04-10T08:40:28.213Z,16.17
2018-04-10T08:42:58.129Z,15.61
2018-04-10T08:45:27.633Z,15.04
2018-04-10T08:47:57.539Z,14.90
2018-04-10T08:50:27.066Z,14.74
2018-04-10T08:52:56.961Z,14.69
2018-04-10T08:55:26.457Z,14.97
2018-04-10T08:57:55.981Z,14.90
2018-04-10T09:00:26.075Z,15.05
2018-04-10T09:02:55.588Z,15.13
2018-04-10T09:05:25.109Z,15.13
2018-04-10T09:07:54.621Z,15.33
2018-04-10T09:10:24.535Z,15.28
2018-04-10T09:12:54.445Z,15.32
2018-04-10T09:15:24.347Z,15.44
2018-04-10T09:17:53.859Z,15.83
2018-04-10T09:20:23.391Z,15.76
2018-04-10T09:22:53.300Z,15.97
2018-04-10T09:25:23.217Z,15.79
2018-04-10T09:27:52.900Z,15.86
2018-04-10T09:30:22.393Z,15.94
2018-04-10T09:32:51.927Z,16.07
2018-04-10T09:35:21.598Z,16.43
2018-04-10T09:37:51.113Z,16.28
2018-04-10T09:40:20.621Z,16.40
2018-04-10T09:42:50.153Z,16.65
2018-04-10T09:45:20.056Z,16.61
2018-04-10T09:47:49.554Z,16.65
2018-04-10T09:50:19.059Z,16.28
2018-04-10T09:52:48.564Z,16.70
2018-04-10T09:55:18.068Z,16.94
2018-04-10T09:57:47.598Z,16.97
2018-04-10T10:03:14.223Z,16.58
2018-04-10T10:05:43.732Z,16.79
2018-04-10T10:08:13.236Z,16.77
2018-04-10T10:10:42.750Z,16.99
2018-04-10T10:13:12.260Z,17.39
2018-04-10T10:15:41.787Z,17.08
2018-04-10T10:18:11.706Z,16.90
2018-04-10T10:20:41.594Z,17.43
2018-04-10T10:23:11.160Z,17.50
2018-04-10T10:25:40.660Z,17.69
2018-04-10T10:28:10.162Z,17.78
2018-04-10T10:30:39.686Z,17.55
2018-04-10T10:33:09.193Z,17.89
2018-04-10T10:35:38.689Z,17.97
2018-04-10T10:38:08.205Z,18.11
2018-04-10T10:40:38.648Z,17.90
2018-04-10T10:43:08.163Z,18.37
2018-04-10T10:45:37.668Z,18.53
2018-04-10T10:48:07.167Z,18.44
2018-04-10T10:50:36.704Z,18.69
2018-04-10T10:53:06.614Z,19.14
2018-04-10T10:55:36.134Z,18.56
2018-04-10T10:58:06.019Z,18.66
2018-04-10T11:00:35.730Z,18.86
2018-04-10T11:03:05.251Z,18.95
2018-04-10T11:05:34.745Z,18.48
2018-04-10T11:08:04.260Z,18.78
2018-04-10T11:10:33.785Z,18.68
2018-04-10T11:13:03.686Z,19.19
2018-04-10T11:15:33.215Z,19.20
2018-04-10T11:18:03.113Z,19.16
2018-04-10T11:20:33.031Z,19.37
2018-04-10T11:23:02.937Z,19.48
2018-04-10T11:25:32.432Z,19.79
2018-04-10T11:28:01.968Z,20.44
2018-04-10T11:30:31.871Z,21.12
2018-04-10T11:33:01.923Z,21.58
2018-04-10T11:35:32.029Z,21.96
2018-04-10T11:38:02.116Z,22.26
2018-04-10T11:40:32.212Z,22.32
2018-04-10T11:43:02.072Z,22.54
2018-04-10T11:45:31.920Z,22.63
2018-04-10T11:48:01.989Z,22.67
2018-04-10T11:50:32.070Z,22.65
2018-04-10T11:53:02.074Z,22.30
2018-04-10T11:55:32.339Z,22.62
2018-04-10T11:58:02.418Z,22.84
2018-04-10T12:00:32.665Z,23.12
2018-04-10T12:03:02.747Z,23.02
2018-04-10T12:05:32.797Z,22.86
2018-04-10T12:08:03.271Z,22.45
2018-04-10T12:10:33.324Z,21.91
2018-04-10T12:13:03.407Z,21.68
2018-04-10T12:15:33.483Z,21.66
2018-04-10T12:18:03.577Z,21.51
2018-04-10T12:20:34.043Z,21.27
2018-04-10T12:23:04.137Z,20.80
2018-04-10T12:25:34.607Z,20.83
2018-04-10T12:28:04.697Z,20.42
2018-04-10T12:30:35.158Z,20.17
2018-04-10T12:33:05.083Z,19.48
2018-04-10T12:35:34.969Z,19.15
2018-04-10T12:38:04.667Z,19.18
2018-04-10T12:40:34.189Z,19.05
2018-04-10T12:43:03.407Z,18.72
2018-04-10T12:45:33.098Z,18.43
2018-04-10T12:48:02.610Z,17.79
2018-04-10T12:50:32.116Z,17.86
2018-04-10T12:53:01.272Z,17.72
2018-04-10T12:55:30.778Z,17.74
2018-04-10T12:58:00.304Z,17.73
2018-04-10T13:00:29.802Z,17.74
2018-04-10T13:03:01.886Z,17.62
2018-04-10T13:05:31.400Z,17.28
2018-04-10T13:08:00.690Z,16.88
2018-04-10T13:10:30.638Z,16.35
2018-04-10T13:13:00.531Z,16.11
2018-04-10T13:15:29.480Z,15.71
2018-04-10T13:17:58.998Z,15.42
2018-04-10T13:20:28.492Z,15.34
2018-04-10T13:22:57.993Z,14.98
2018-04-10T13:25:27.505Z,15.09
2018-04-10T13:27:57.042Z,15.16
2018-04-10T13:30:26.539Z,14.99
2018-04-10T13:32:56.031Z,15.22
2018-04-10T13:35:25.550Z,15.03
2018-04-10T13:37:55.087Z,15.29
2018-04-10T13:40:24.976Z,15.46
2018-04-10T13:42:54.472Z,15.29
2018-04-10T13:45:23.996Z,15.38
2018-04-10T13:47:53.487Z,15.44
2018-04-10T13:50:22.986Z,15.33
2018-04-10T13:52:52.517Z,15.37
2018-04-10T13:55:22.432Z,15.46
2018-04-10T13:57:51.934Z,15.30
2018-04-10T14:00:21.427Z,15.23
2018-04-10T14:02:50.922Z,14.97
2018-04-10T14:05:20.428Z,14.96
2018-04-10T14:07:49.702Z,15.00
2018-04-10T14:10:18.962Z,15.29
2018-04-10T14:12:48.867Z,14.96
2018-04-10T14:15:18.136Z,15.01
2018-04-10T14:17:47.833Z,15.14
2018-04-10T14:20:17.399Z,14.94
2018-04-10T14:22:47.284Z,15.00
2018-04-10T14:25:16.568Z,15.00
2018-04-10T14:27:45.851Z,14.81
2018-04-10T14:30:15.113Z,14.42
2018-04-10T14:32:45.039Z,14.33
2018-04-10T14:35:14.691Z,14.20
2018-04-10T14:37:43.856Z,13.99
2018-04-10T14:40:13.362Z,14.05
2018-04-10T14:42:43.266Z,14.07
2018-04-10T14:45:13.172Z,14.14
2018-04-10T14:47:43.072Z,14.07
2018-04-10T14:50:12.581Z,14.15
2018-04-10T14:52:41.872Z,14.27
2018-04-10T14:55:11.133Z,14.07
2018-04-10T14:57:40.419Z,14.04
2018-04-10T15:00:09.923Z,13.88
2018-04-10T15:02:39.193Z,13.32
2018-04-10T15:05:09.331Z,13.27
2018-04-10T15:07:39.236Z,13.00
2018-04-10T15:10:09.166Z,12.94
2018-04-10T15:12:38.652Z,12.77
2018-04-10T15:15:08.536Z,12.70
2018-04-10T15:17:38.044Z,12.42
2018-04-10T15:20:07.548Z,12.70
2018-04-10T15:22:36.806Z,12.55
2018-04-10T15:25:05.994Z,12.67
2018-04-10T15:27:35.274Z,12.73
2018-04-10T15:30:04.451Z,12.79
2018-04-10T15:32:33.963Z,12.78
2018-04-10T15:35:03.477Z,12.74
2018-04-10T15:37:32.994Z,12.36
2018-04-10T15:40:02.888Z,12.59
2018-04-10T15:42:32.405Z,12.56
2018-04-10T15:45:01.907Z,12.45
2018-04-10T15:47:31.418Z,12.19
2018-04-10T15:50:00.917Z,12.26
2018-04-10T15:52:30.461Z,12.15
2018-04-10T15:54:59.973Z,12.15
2018-04-10T15:57:29.465Z,12.11
2018-04-10T15:59:58.973Z,12.00
2018-04-10T16:02:28.471Z,12.17
2018-04-10T16:04:58.372Z,12.19
2018-04-10T16:07:28.290Z,12.01
2018-04-10T16:09:58.195Z,12.04
2018-04-10T16:12:27.698Z,11.98
2018-04-10T16:14:56.864Z,11.83
2018-04-10T16:17:26.362Z,11.90
2018-04-10T16:19:55.526Z,11.82
2018-04-10T16:22:25.026Z,12.04
2018-04-10T16:24:54.916Z,12.14
2018-04-10T16:27:24.418Z,12.03
2018-04-10T16:29:53.920Z,12.09
2018-04-10T16:32:23.418Z,12.11
2018-04-10T16:34:53.128Z,12.23
2018-04-10T16:37:22.616Z,12.14
2018-04-10T16:39:52.132Z,12.24
2018-04-10T16:42:21.641Z,12.12
2018-04-10T16:44:51.142Z,12.17
2018-04-10T16:47:20.638Z,12.13
2018-04-10T16:49:50.150Z,12.11
2018-04-10T16:52:19.650Z,12.16
2018-04-10T16:54:49.200Z,12.18
2018-04-10T16:57:19.115Z,12.01
2018-04-10T16:59:49.014Z,11.85
2018-04-10T17:02:18.294Z,11.90
2018-04-10T17:04:47.794Z,11.80
2018-04-10T17:07:17.294Z,11.69
2018-04-10T17:09:46.560Z,11.57
2018-04-10T17:12:16.057Z,11.60
2018-04-10T17:14:45.729Z,11.53
2018-04-10T17:17:15.419Z,11.51
2018-04-10T17:19:44.928Z,11.48
2018-04-10T17:22:14.436Z,11.49
2018-04-10T17:24:43.940Z,11.45
2018-04-10T17:27:13.440Z,11.49
2018-04-10T17:29:42.718Z,11.56
2018-04-10T17:32:11.994Z,11.59
2018-04-10T17:34:41.890Z,11.67
2018-04-10T17:37:11.394Z,11.67
2018-04-10T17:39:40.887Z,11.58
2018-04-10T17:42:10.386Z,11.52
2018-04-10T17:44:40.096Z,11.42
2018-04-10T17:47:09.393Z,11.46
2018-04-10T17:49:38.879Z,11.52
2018-04-10T17:52:08.390Z,11.48
2018-04-10T17:54:37.890Z,11.52
2018-04-10T17:57:07.384Z,11.52
2018-04-10T17:59:36.961Z,11.53
2018-04-10T18:02:06.866Z,11.52
2018-04-10T18:04:36.357Z,11.49
2018-04-10T18:07:05.197Z,11.47
2018-04-10T18:09:34.366Z,11.41
2018-04-10T18:12:03.857Z,11.43
2018-04-10T18:14:33.387Z,11.51
2018-04-10T18:17:03.295Z,11.44
2018-04-10T18:19:32.970Z,11.42
2018-04-10T18:22:02.482Z,11.47
2018-04-10T18:24:31.976Z,11.41
2018-04-10T18:27:01.584Z,11.45
2018-04-10T18:29:31.139Z,11.39
2018-04-10T18:32:01.054Z,11.38
2018-04-10T18:34:30.968Z,11.29
2018-04-10T18:37:00.633Z,11.33
2018-04-10T18:39:29.795Z,11.42
2018-04-10T18:41:59.310Z,11.41
2018-04-10T18:44:28.804Z,11.43
2018-04-10T18:46:58.326Z,11.32
2018-04-10T18:49:27.824Z,11.25
2018-04-10T18:51:57.332Z,11.31
2018-04-10T18:54:26.850Z,11.31
2018-04-10T18:56:56.348Z,11.16
2018-04-10T18:59:25.865Z,11.12
2018-04-10T19:01:55.361Z,11.00
2018-04-10T19:04:24.866Z,10.94
2018-04-10T19:06:54.133Z,10.88
2018-04-10T19:09:24.045Z,10.85
2018-04-10T19:11:53.951Z,10.93
2018-04-10T19:14:23.840Z,10.93
2018-04-10T19:16:53.368Z,10.88
2018-04-10T19:19:22.870Z,10.85
2018-04-10T19:21:52.362Z,10.82
2018-04-10T19:24:21.856Z,10.83
2018-04-10T19:26:51.348Z,10.89
2018-04-10T19:29:21.286Z,10.86
2018-04-10T19:31:50.971Z,10.83
2018-04-10T19:34:20.478Z,10.69
2018-04-10T19:36:49.984Z,10.56
2018-04-10T19:39:19.581Z,10.55
2018-04-10T19:41:49.066Z,10.58
2018-04-10T19:44:18.635Z,10.40
2018-04-10T19:46:48.130Z,10.35
2018-04-10T19:49:17.630Z,10.29
2018-04-10T19:51:47.188Z,10.29
2018-04-10T19:54:16.464Z,10.30
2018-04-10T19:56:46.130Z,10.20
2018-04-10T19:59:15.634Z,10.34
2018-04-10T20:01:45.142Z,10.24
2018-04-10T20:04:14.636Z,10.24
2018-04-10T20:06:44.122Z,10.21
2018-04-10T20:09:13.656Z,10.28
2018-04-10T20:11:43.164Z,10.29
2018-04-10T20:14:12.736Z,10.19
2018-04-10T20:16:42.697Z,10.20
2018-04-10T20:19:12.192Z,10.22
2018-04-10T20:21:41.696Z,10.22
2018-04-10T20:24:11.187Z,9.95
2018-04-10T20:26:40.675Z,9.94
2018-04-10T20:29:10.165Z,9.93
2018-04-10T20:31:40.068Z,9.94
2018-04-10T20:34:09.580Z,9.90
2018-04-10T20:36:39.149Z,9.97
2018-04-10T20:39:08.293Z,9.90
2018-04-10T20:41:38.183Z,9.93
2018-04-10T20:44:07.684Z,9.76
2018-04-10T20:46:37.178Z,9.73
2018-04-10T20:49:06.446Z,9.69
2018-04-10T20:51:35.716Z,9.60
2018-04-10T20:54:05.275Z,9.57
2018-04-10T20:56:34.786Z,9.53
2018-04-10T20:59:04.288Z,9.58
2018-04-10T21:01:33.792Z,9.45
2018-04-10T21:04:03.294Z,9.59
2018-04-10T21:06:32.782Z,9.54
2018-04-10T21:09:02.273Z,9.60
2018-04-10T21:11:31.539Z,9.38
2018-04-10T21:14:01.043Z,9.37
2018-04-10T21:16:30.526Z,9.34
2018-04-10T21:19:00.053Z,9.52
2018-04-10T21:21:29.574Z,9.56
2018-04-10T21:23:59.460Z,9.39
2018-04-10T21:26:28.969Z,9.35
2018-04-10T21:28:58.470Z,9.44
2018-04-10T21:31:27.954Z,9.26
2018-04-10T21:33:57.464Z,9.21
2018-04-10T21:36:26.704Z,9.11
2018-04-10T21:38:56.605Z,9.06
2018-04-10T21:41:25.947Z,9.03
2018-04-10T21:43:55.487Z,9.02
2018-04-10T21:46:26.180Z,8.97
2018-04-10T21:48:56.063Z,8.80
2018-04-10T21:51:25.543Z,8.73
2018-04-10T21:53:55.033Z,8.56
2018-04-10T21:56:24.525Z,8.66
2018-04-10T21:58:54.025Z,8.64
2018-04-10T22:01:23.525Z,8.57
2018-04-10T22:03:53.436Z,8.52
2018-04-10T22:06:22.944Z,8.53
2018-04-10T22:08:52.835Z,8.48
2018-04-10T22:11:22.365Z,8.45
2018-04-10T22:13:51.879Z,8.41
2018-04-10T22:16:21.379Z,8.41
2018-04-10T22:18:50.896Z,8.30
2018-04-10T22:21:20.393Z,8.21
2018-04-10T22:23:49.883Z,8.18
2018-04-10T22:26:19.780Z,8.12
2018-04-10T22:28:49.087Z,8.07
2018-04-10T22:31:18.589Z,8.16
2018-04-10T22:33:48.083Z,8.26
2018-04-10T22:36:17.608Z,8.22
2018-04-10T22:38:47.098Z,8.21
2018-04-10T22:41:16.622Z,8.17
2018-04-10T22:43:46.241Z,8.17
2018-04-10T22:46:15.821Z,8.29
2018-04-10T22:48:45.102Z,8.31
2018-04-10T22:51:14.365Z,8.14
2018-04-10T22:53:43.889Z,7.91
2018-04-10T22:56:13.635Z,7.90
2018-04-10T22:58:43.778Z,8.07
2018-04-10T23:01:13.485Z,7.94
2018-04-10T23:03:43.013Z,7.77
2018-04-10T23:06:12.521Z,7.80
2018-04-10T23:08:42.021Z,7.85
2018-04-10T23:11:11.644Z,7.68
2018-04-10T23:13:41.144Z,7.39
2018-04-10T23:16:10.475Z,7.29
2018-04-10T23:18:39.754Z,7.46
2018-04-10T23:21:09.267Z,7.61
2018-04-10T23:23:38.817Z,7.63
2018-04-10T23:26:08.326Z,7.37
2018-04-10T23:28:38.246Z,7.21
2018-04-10T23:31:08.192Z,6.99
2018-04-10T23:33:37.467Z,6.76
2018-04-10T23:36:07.406Z,6.49
2018-04-10T23:38:36.972Z,6.20
2018-04-10T23:41:06.496Z,6.08
2018-04-10T23:43:35.954Z,6.25
2018-04-10T23:46:05.210Z,6.57
2018-04-10T23:48:34.861Z,6.84
2018-04-10T23:51:04.352Z,6.98
2018-04-10T23:53:33.850Z,7.10
2018-04-10T23:56:03.546Z,7.09
2018-04-10T23:58:33.457Z,7.11
